sensor_id;sensor_type;location;lat;lon;timestamp;temperature;humidity
66740;DHT22;53653;52.188;8.602;2022-08-07T00:00:20;15.18;67.69
66740;DHT22;53653;52.188;8.602;2022-08-07T00:02:46;15.18;67.46
66740;DHT22;53653;52.188;8.602;2022-08-07T00:05:12;15.22;67.22
66740;DHT22;53653;52.188;8.602;2022-08-07T00:07:37;15.22;67.61
66740;DHT22;53653;52.188;8.602;2022-08-07T00:10:03;15.18;68.09
66740;DHT22;53653;52.188;8.602;2022-08-07T00:12:29;15.18;67.94
66740;DHT22;53653;52.188;8.602;2022-08-07T00:14:54;15.14;68.22
66740;DHT22;53653;52.188;8.602;2022-08-07T00:17:19;15.12;68.68
66740;DHT22;53653;52.188;8.602;2022-08-07T00:19:45;15.06;68.99
66740;DHT22;53653;52.188;8.602;2022-08-07T00:22:11;15.02;69.43
66740;DHT22;53653;52.188;8.602;2022-08-07T00:24:36;14.96;69.71
66740;DHT22;53653;52.188;8.602;2022-08-07T00:27:02;14.91;69.92
66740;DHT22;53653;52.188;8.602;2022-08-07T00:29:27;14.87;70.13
66740;DHT22;53653;52.188;8.602;2022-08-07T00:31:54;14.80;70.31
66740;DHT22;53653;52.188;8.602;2022-08-07T00:34:21;14.73;70.59
66740;DHT22;53653;52.188;8.602;2022-08-07T00:36:46;14.70;70.73
66740;DHT22;53653;52.188;8.602;2022-08-07T00:39:12;14.65;71.07
66740;DHT22;53653;52.188;8.602;2022-08-07T00:41:38;14.60;71.36
66740;DHT22;53653;52.188;8.602;2022-08-07T00:44:04;14.54;71.78
66740;DHT22;53653;52.188;8.602;2022-08-07T00:46:30;14.48;71.98
66740;DHT22;53653;52.188;8.602;2022-08-07T00:48:56;14.41;71.88
66740;DHT22;53653;52.188;8.602;2022-08-07T00:51:26;14.34;72.52
66740;DHT22;53653;52.188;8.602;2022-08-07T00:53:52;14.30;72.77
66740;DHT22;53653;52.188;8.602;2022-08-07T00:56:18;14.30;72.80
66740;DHT22;53653;52.188;8.602;2022-08-07T00:58:44;14.29;72.66
66740;DHT22;53653;52.188;8.602;2022-08-07T01:01:09;14.25;72.67
66740;DHT22;53653;52.188;8.602;2022-08-07T01:03:35;14.17;73.21
66740;DHT22;53653;52.188;8.602;2022-08-07T01:06:00;14.08;73.65
66740;DHT22;53653;52.188;8.602;2022-08-07T01:08:27;14.05;73.61
66740;DHT22;53653;52.188;8.602;2022-08-07T01:10:53;14.04;73.73
66740;DHT22;53653;52.188;8.602;2022-08-07T01:13:19;14.05;73.63
66740;DHT22;53653;52.188;8.602;2022-08-07T01:15:46;13.99;73.80
66740;DHT22;53653;52.188;8.602;2022-08-07T01:18:12;14.01;74.00
66740;DHT22;53653;52.188;8.602;2022-08-07T01:20:44;13.96;74.07
66740;DHT22;53653;52.188;8.602;2022-08-07T01:23:10;13.96;73.85
66740;DHT22;53653;52.188;8.602;2022-08-07T01:25:36;13.95;74.23
66740;DHT22;53653;52.188;8.602;2022-08-07T01:28:02;13.94;73.88
66740;DHT22;53653;52.188;8.602;2022-08-07T01:30:28;13.92;74.09
66740;DHT22;53653;52.188;8.602;2022-08-07T01:32:54;13.94;74.08
66740;DHT22;53653;52.188;8.602;2022-08-07T01:35:20;13.94;73.89
66740;DHT22;53653;52.188;8.602;2022-08-07T01:37:46;13.92;74.14
66740;DHT22;53653;52.188;8.602;2022-08-07T01:40:12;13.90;74.08
66740;DHT22;53653;52.188;8.602;2022-08-07T01:42:38;13.89;74.09
66740;DHT22;53653;52.188;8.602;2022-08-07T01:45:05;13.85;74.19
66740;DHT22;53653;52.188;8.602;2022-08-07T01:47:31;13.81;74.32
66740;DHT22;53653;52.188;8.602;2022-08-07T01:49:56;13.78;74.30
66740;DHT22;53653;52.188;8.602;2022-08-07T01:52:24;13.78;74.38
66740;DHT22;53653;52.188;8.602;2022-08-07T01:54:51;13.78;74.22
66740;DHT22;53653;52.188;8.602;2022-08-07T01:57:38;13.72;74.71
66740;DHT22;53653;52.188;8.602;2022-08-07T02:00:07;13.72;74.94
66740;DHT22;53653;52.188;8.602;2022-08-07T02:02:41;13.74;74.76
66740;DHT22;53653;52.188;8.602;2022-08-07T02:05:24;13.51;75.17
66740;DHT22;53653;52.188;8.602;2022-08-07T02:07:51;13.48;75.26
66740;DHT22;53653;52.188;8.602;2022-08-07T02:10:21;13.54;75.24
66740;DHT22;53653;52.188;8.602;2022-08-07T02:12:48;13.58;74.90
66740;DHT22;53653;52.188;8.602;2022-08-07T02:15:15;13.53;74.74
66740;DHT22;53653;52.188;8.602;2022-08-07T02:17:43;13.50;75.01
66740;DHT22;53653;52.188;8.602;2022-08-07T02:20:10;13.46;75.21
66740;DHT22;53653;52.188;8.602;2022-08-07T02:22:37;13.47;75.27
66740;DHT22;53653;52.188;8.602;2022-08-07T02:25:05;13.48;75.09
66740;DHT22;53653;52.188;8.602;2022-08-07T02:27:32;13.51;74.96
66740;DHT22;53653;52.188;8.602;2022-08-07T02:30:00;13.51;75.01
66740;DHT22;53653;52.188;8.602;2022-08-07T02:32:26;13.48;74.93
66740;DHT22;53653;52.188;8.602;2022-08-07T02:34:53;13.47;75.01
66740;DHT22;53653;52.188;8.602;2022-08-07T02:37:20;13.40;75.19
66740;DHT22;53653;52.188;8.602;2022-08-07T02:39:47;13.28;76.19
66740;DHT22;53653;52.188;8.602;2022-08-07T02:42:15;13.30;75.93
66740;DHT22;53653;52.188;8.602;2022-08-07T02:44:44;13.31;75.86
66740;DHT22;53653;52.188;8.602;2022-08-07T02:47:10;13.30;75.82
66740;DHT22;53653;52.188;8.602;2022-08-07T02:49:36;13.27;75.76
66740;DHT22;53653;52.188;8.602;2022-08-07T02:52:03;13.06;77.26
66740;DHT22;53653;52.188;8.602;2022-08-07T02:54:31;12.71;78.38
66740;DHT22;53653;52.188;8.602;2022-08-07T02:57:00;12.48;79.66
66740;DHT22;53653;52.188;8.602;2022-08-07T02:59:27;12.27;80.56
66740;DHT22;53653;52.188;8.602;2022-08-07T03:01:54;12.27;80.91
66740;DHT22;53653;52.188;8.602;2022-08-07T03:04:22;12.23;81.08
66740;DHT22;53653;52.188;8.602;2022-08-07T03:06:48;12.21;80.97
66740;DHT22;53653;52.188;8.602;2022-08-07T03:09:15;12.32;80.13
66740;DHT22;53653;52.188;8.602;2022-08-07T03:11:42;12.45;79.36
66740;DHT22;53653;52.188;8.602;2022-08-07T03:14:08;12.52;79.44
66740;DHT22;53653;52.188;8.602;2022-08-07T03:16:35;12.68;77.94
66740;DHT22;53653;52.188;8.602;2022-08-07T03:19:04;12.75;77.60
66740;DHT22;53653;52.188;8.602;2022-08-07T03:21:30;12.80;77.07
66740;DHT22;53653;52.188;8.602;2022-08-07T03:23:56;12.80;77.07
66740;DHT22;53653;52.188;8.602;2022-08-07T03:26:25;12.86;76.95
66740;DHT22;53653;52.188;8.602;2022-08-07T03:28:53;12.82;77.74
66740;DHT22;53653;52.188;8.602;2022-08-07T03:31:20;12.85;77.04
66740;DHT22;53653;52.188;8.602;2022-08-07T03:33:51;12.73;77.36
66740;DHT22;53653;52.188;8.602;2022-08-07T03:36:19;12.75;76.73
66740;DHT22;53653;52.188;8.602;2022-08-07T03:38:46;12.69;77.40
66740;DHT22;53653;52.188;8.602;2022-08-07T03:41:13;12.73;77.05
66740;DHT22;53653;52.188;8.602;2022-08-07T03:43:39;12.63;77.94
66740;DHT22;53653;52.188;8.602;2022-08-07T03:46:05;12.73;77.33
66740;DHT22;53653;52.188;8.602;2022-08-07T03:48:32;12.75;77.25
66740;DHT22;53653;52.188;8.602;2022-08-07T03:50:59;12.82;77.27
66740;DHT22;53653;52.188;8.602;2022-08-07T03:53:25;12.90;76.66
66740;DHT22;53653;52.188;8.602;2022-08-07T03:55:52;12.85;76.34
66740;DHT22;53653;52.188;8.602;2022-08-07T03:58:19;12.79;76.89
66740;DHT22;53653;52.188;8.602;2022-08-07T04:00:46;12.79;77.00
66740;DHT22;53653;52.188;8.602;2022-08-07T04:03:13;12.82;76.55
66740;DHT22;53653;52.188;8.602;2022-08-07T04:05:39;12.80;76.52
66740;DHT22;53653;52.188;8.602;2022-08-07T04:08:05;12.82;76.39
66740;DHT22;53653;52.188;8.602;2022-08-07T04:10:31;12.80;76.37
66740;DHT22;53653;52.188;8.602;2022-08-07T04:12:57;12.80;76.40
66740;DHT22;53653;52.188;8.602;2022-08-07T04:15:22;12.78;76.90
66740;DHT22;53653;52.188;8.602;2022-08-07T04:17:48;12.79;77.35
66740;DHT22;53653;52.188;8.602;2022-08-07T04:20:13;12.78;77.49
66740;DHT22;53653;52.188;8.602;2022-08-07T04:22:39;12.73;77.47
66740;DHT22;53653;52.188;8.602;2022-08-07T04:25:06;12.73;77.51
66740;DHT22;53653;52.188;8.602;2022-08-07T04:27:33;12.75;77.45
66740;DHT22;53653;52.188;8.602;2022-08-07T04:29:58;12.80;77.35
66740;DHT22;53653;52.188;8.602;2022-08-07T04:32:24;12.82;77.20
66740;DHT22;53653;52.188;8.602;2022-08-07T04:34:50;12.83;77.26
66740;DHT22;53653;52.188;8.602;2022-08-07T04:37:16;12.90;77.36
66740;DHT22;53653;52.188;8.602;2022-08-07T04:39:41;12.97;76.95
66740;DHT22;53653;52.188;8.602;2022-08-07T04:42:07;13.04;76.45
66740;DHT22;53653;52.188;8.602;2022-08-07T04:44:32;13.11;76.38
66740;DHT22;53653;52.188;8.602;2022-08-07T04:47:15;13.16;76.24
66740;DHT22;53653;52.188;8.602;2022-08-07T04:49:53;13.26;76.02
66740;DHT22;53653;52.188;8.602;2022-08-07T04:52:33;13.33;75.93
66740;DHT22;53653;52.188;8.602;2022-08-07T04:55:07;13.43;75.52
66740;DHT22;53653;52.188;8.602;2022-08-07T05:00:49;13.57;75.30
66740;DHT22;53653;52.188;8.602;2022-08-07T05:06:06;13.77;75.11
66740;DHT22;53653;52.188;8.602;2022-08-07T05:08:44;13.96;74.67
66740;DHT22;53653;52.188;8.602;2022-08-07T05:11:30;14.06;74.22
66740;DHT22;53653;52.188;8.602;2022-08-07T05:14:10;14.33;73.48
66740;DHT22;53653;52.188;8.602;2022-08-07T05:16:37;14.53;72.82
66740;DHT22;53653;52.188;8.602;2022-08-07T05:19:10;14.64;72.72
66740;DHT22;53653;52.188;8.602;2022-08-07T05:21:44;14.19;74.02
66740;DHT22;53653;52.188;8.602;2022-08-07T05:24:13;14.64;72.60
66740;DHT22;53653;52.188;8.602;2022-08-07T05:26:42;14.71;72.48
66740;DHT22;53653;52.188;8.602;2022-08-07T05:29:08;13.86;75.62
66740;DHT22;53653;52.188;8.602;2022-08-07T05:31:37;13.88;75.49
66740;DHT22;53653;52.188;8.602;2022-08-07T05:34:07;14.08;75.34
66740;DHT22;53653;52.188;8.602;2022-08-07T05:36:36;14.27;74.82
66740;DHT22;53653;52.188;8.602;2022-08-07T05:39:02;14.65;73.65
66740;DHT22;53653;52.188;8.602;2022-08-07T05:41:29;14.80;72.79
66740;DHT22;53653;52.188;8.602;2022-08-07T05:43:55;14.83;72.45
66740;DHT22;53653;52.188;8.602;2022-08-07T05:46:22;15.06;71.72
66740;DHT22;53653;52.188;8.602;2022-08-07T05:48:49;15.49;70.48
66740;DHT22;53653;52.188;8.602;2022-08-07T05:51:16;15.28;70.85
66740;DHT22;53653;52.188;8.602;2022-08-07T05:53:42;15.47;71.10
66740;DHT22;53653;52.188;8.602;2022-08-07T05:56:08;15.81;69.73
66740;DHT22;53653;52.188;8.602;2022-08-07T05:58:38;15.89;68.68
66740;DHT22;53653;52.188;8.602;2022-08-07T06:01:05;15.94;69.47
66740;DHT22;53653;52.188;8.602;2022-08-07T06:03:32;16.00;68.26
66740;DHT22;53653;52.188;8.602;2022-08-07T06:05:58;16.01;68.37
66740;DHT22;53653;52.188;8.602;2022-08-07T06:08:24;15.81;68.58
66740;DHT22;53653;52.188;8.602;2022-08-07T06:10:50;15.90;68.24
66740;DHT22;53653;52.188;8.602;2022-08-07T06:13:16;15.96;68.11
66740;DHT22;53653;52.188;8.602;2022-08-07T06:15:42;16.21;66.57
66740;DHT22;53653;52.188;8.602;2022-08-07T06:18:11;15.94;67.67
66740;DHT22;53653;52.188;8.602;2022-08-07T06:20:37;16.00;67.85
66740;DHT22;53653;52.188;8.602;2022-08-07T06:23:06;16.17;68.03
66740;DHT22;53653;52.188;8.602;2022-08-07T06:25:33;16.35;67.37
66740;DHT22;53653;52.188;8.602;2022-08-07T06:28:05;16.69;66.08
66740;DHT22;53653;52.188;8.602;2022-08-07T06:30:30;16.66;65.93
66740;DHT22;53653;52.188;8.602;2022-08-07T06:32:57;16.87;65.20
66740;DHT22;53653;52.188;8.602;2022-08-07T06:35:22;17.41;63.98
66740;DHT22;53653;52.188;8.602;2022-08-07T06:37:48;17.49;63.10
66740;DHT22;53653;52.188;8.602;2022-08-07T06:40:13;17.54;63.22
66740;DHT22;53653;52.188;8.602;2022-08-07T06:42:41;17.56;63.05
66740;DHT22;53653;52.188;8.602;2022-08-07T06:45:12;17.32;63.70
66740;DHT22;53653;52.188;8.602;2022-08-07T06:47:38;17.37;63.90
66740;DHT22;53653;52.188;8.602;2022-08-07T06:50:04;18.12;61.22
66740;DHT22;53653;52.188;8.602;2022-08-07T06:52:34;18.34;60.22
66740;DHT22;53653;52.188;8.602;2022-08-07T06:55:02;18.43;59.91
66740;DHT22;53653;52.188;8.602;2022-08-07T06:57:29;18.37;60.00
66740;DHT22;53653;52.188;8.602;2022-08-07T06:59:56;18.53;58.34
66740;DHT22;53653;52.188;8.602;2022-08-07T07:02:22;18.76;57.31
66740;DHT22;53653;52.188;8.602;2022-08-07T07:04:49;18.99;58.03
66740;DHT22;53653;52.188;8.602;2022-08-07T07:07:15;19.19;56.82
66740;DHT22;53653;52.188;8.602;2022-08-07T07:09:45;19.16;56.80
66740;DHT22;53653;52.188;8.602;2022-08-07T07:17:16;19.68;56.58
66740;DHT22;53653;52.188;8.602;2022-08-07T07:19:47;20.49;54.28
66740;DHT22;53653;52.188;8.602;2022-08-07T07:22:15;20.12;54.02
66740;DHT22;53653;52.188;8.602;2022-08-07T07:24:42;20.36;53.63
66740;DHT22;53653;52.188;8.602;2022-08-07T07:27:10;20.21;52.74
66740;DHT22;53653;52.188;8.602;2022-08-07T07:29:39;20.59;52.42
66740;DHT22;53653;52.188;8.602;2022-08-07T07:32:11;20.50;52.96
66740;DHT22;53653;52.188;8.602;2022-08-07T07:34:41;21.31;51.18
66740;DHT22;53653;52.188;8.602;2022-08-07T07:37:07;21.78;47.89
66740;DHT22;53653;52.188;8.602;2022-08-07T07:39:36;21.88;48.24
66740;DHT22;53653;52.188;8.602;2022-08-07T07:42:04;22.22;47.27
66740;DHT22;53653;52.188;8.602;2022-08-07T07:44:30;22.25;47.48
66740;DHT22;53653;52.188;8.602;2022-08-07T07:46:58;22.48;47.94
66740;DHT22;53653;52.188;8.602;2022-08-07T07:49:26;22.79;47.01
66740;DHT22;53653;52.188;8.602;2022-08-07T07:51:53;22.88;46.77
66740;DHT22;53653;52.188;8.602;2022-08-07T07:54:20;22.71;46.67
66740;DHT22;53653;52.188;8.602;2022-08-07T07:56:47;22.89;47.11
66740;DHT22;53653;52.188;8.602;2022-08-07T07:59:14;22.67;47.68
66740;DHT22;53653;52.188;8.602;2022-08-07T08:01:44;22.96;47.17
66740;DHT22;53653;52.188;8.602;2022-08-07T08:04:11;22.99;47.07
66740;DHT22;53653;52.188;8.602;2022-08-07T08:06:43;23.00;46.57
66740;DHT22;53653;52.188;8.602;2022-08-07T08:09:09;22.86;46.98
66740;DHT22;53653;52.188;8.602;2022-08-07T08:11:36;23.13;47.17
66740;DHT22;53653;52.188;8.602;2022-08-07T08:14:05;23.49;46.25
66740;DHT22;53653;52.188;8.602;2022-08-07T08:16:34;22.58;46.13
66740;DHT22;53653;52.188;8.602;2022-08-07T08:19:05;23.39;44.45
66740;DHT22;53653;52.188;8.602;2022-08-07T08:21:31;23.82;43.54
66740;DHT22;53653;52.188;8.602;2022-08-07T08:24:16;24.29;42.78
66740;DHT22;53653;52.188;8.602;2022-08-07T08:27:02;24.25;42.90
66740;DHT22;53653;52.188;8.602;2022-08-07T08:29:42;22.76;43.17
66740;DHT22;53653;52.188;8.602;2022-08-07T08:32:09;23.30;42.84
66740;DHT22;53653;52.188;8.602;2022-08-07T08:34:37;23.61;41.78
66740;DHT22;53653;52.188;8.602;2022-08-07T08:37:05;23.65;42.19
66740;DHT22;53653;52.188;8.602;2022-08-07T08:39:32;23.82;42.78
66740;DHT22;53653;52.188;8.602;2022-08-07T08:42:02;24.28;40.93
66740;DHT22;53653;52.188;8.602;2022-08-07T08:44:53;24.30;39.63
66740;DHT22;53653;52.188;8.602;2022-08-07T08:50:23;24.37;40.08
66740;DHT22;53653;52.188;8.602;2022-08-07T08:53:08;24.13;39.47
66740;DHT22;53653;52.188;8.602;2022-08-07T08:55:39;23.54;40.00
66740;DHT22;53653;52.188;8.602;2022-08-07T08:59:00;23.85;38.87
66740;DHT22;53653;52.188;8.602;2022-08-07T09:01:25;24.09;39.09
66740;DHT22;53653;52.188;8.602;2022-08-07T09:03:55;25.01;36.88
66740;DHT22;53653;52.188;8.602;2022-08-07T09:18:05;25.82;35.67
66740;DHT22;53653;52.188;8.602;2022-08-07T09:20:50;26.20;35.24
66740;DHT22;53653;52.188;8.602;2022-08-07T09:26:23;25.43;35.35
66740;DHT22;53653;52.188;8.602;2022-08-07T09:29:02;25.45;35.38
66740;DHT22;53653;52.188;8.602;2022-08-07T09:31:42;24.97;36.11
66740;DHT22;53653;52.188;8.602;2022-08-07T09:45:13;25.59;34.29
66740;DHT22;53653;52.188;8.602;2022-08-07T09:50:47;25.69;34.71
66740;DHT22;53653;52.188;8.602;2022-08-07T09:53:19;26.10;33.92
66740;DHT22;53653;52.188;8.602;2022-08-07T09:56:10;26.10;34.05
66740;DHT22;53653;52.188;8.602;2022-08-07T10:01:36;24.56;36.31
66740;DHT22;53653;52.188;8.602;2022-08-07T10:04:23;25.43;35.62
66740;DHT22;53653;52.188;8.602;2022-08-07T10:07:09;25.62;34.76
66740;DHT22;53653;52.188;8.602;2022-08-07T10:09:40;25.07;35.16
66740;DHT22;53653;52.188;8.602;2022-08-07T10:12:39;24.73;35.30
66740;DHT22;53653;52.188;8.602;2022-08-07T10:15:28;25.15;34.80
66740;DHT22;53653;52.188;8.602;2022-08-07T10:21:29;26.68;31.83
66740;DHT22;53653;52.188;8.602;2022-08-07T10:26:59;26.35;33.12
66740;DHT22;53653;52.188;8.602;2022-08-07T10:35:52;28.15;29.63
66740;DHT22;53653;52.188;8.602;2022-08-07T10:41:24;27.89;28.71
66740;DHT22;53653;52.188;8.602;2022-08-07T10:46:45;27.00;29.74
66740;DHT22;53653;52.188;8.602;2022-08-07T10:49:27;26.37;31.92
66740;DHT22;53653;52.188;8.602;2022-08-07T10:52:18;25.50;33.92
66740;DHT22;53653;52.188;8.602;2022-08-07T10:54:58;25.66;33.07
66740;DHT22;53653;52.188;8.602;2022-08-07T10:57:44;25.68;33.12
66740;DHT22;53653;52.188;8.602;2022-08-07T11:00:11;24.53;33.80
66740;DHT22;53653;52.188;8.602;2022-08-07T11:05:53;25.06;33.70
66740;DHT22;53653;52.188;8.602;2022-08-07T11:11:31;27.22;29.62
66740;DHT22;53653;52.188;8.602;2022-08-07T11:19:39;26.40;31.21
66740;DHT22;53653;52.188;8.602;2022-08-07T11:24:57;26.73;30.84
66740;DHT22;53653;52.188;8.602;2022-08-07T11:27:51;26.91;30.13
66740;DHT22;53653;52.188;8.602;2022-08-07T11:30:21;27.20;30.43
66740;DHT22;53653;52.188;8.602;2022-08-07T11:33:01;27.31;29.39
66740;DHT22;53653;52.188;8.602;2022-08-07T11:35:45;27.41;28.63
66740;DHT22;53653;52.188;8.602;2022-08-07T11:41:22;26.33;30.64
66740;DHT22;53653;52.188;8.602;2022-08-07T11:46:42;25.97;30.70
66740;DHT22;53653;52.188;8.602;2022-08-07T11:57:39;26.18;30.12
66740;DHT22;53653;52.188;8.602;2022-08-07T12:02:54;24.80;31.33
66740;DHT22;53653;52.188;8.602;2022-08-07T12:08:24;25.53;31.11
66740;DHT22;53653;52.188;8.602;2022-08-07T12:11:02;26.31;31.11
66740;DHT22;53653;52.188;8.602;2022-08-07T12:13:42;25.46;32.44
66740;DHT22;53653;52.188;8.602;2022-08-07T12:16:16;26.68;30.62
66740;DHT22;53653;52.188;8.602;2022-08-07T12:18:47;27.22;29.71
66740;DHT22;53653;52.188;8.602;2022-08-07T12:27:00;27.82;28.63
66740;DHT22;53653;52.188;8.602;2022-08-07T12:29:33;27.91;28.56
66740;DHT22;53653;52.188;8.602;2022-08-07T12:32:18;27.40;28.26
66740;DHT22;53653;52.188;8.602;2022-08-07T12:34:45;26.78;29.94
66740;DHT22;53653;52.188;8.602;2022-08-07T12:37:12;27.30;29.53
66740;DHT22;53653;52.188;8.602;2022-08-07T12:39:39;27.55;29.97
66740;DHT22;53653;52.188;8.602;2022-08-07T12:42:06;27.70;29.56
66740;DHT22;53653;52.188;8.602;2022-08-07T12:44:33;27.81;28.74
66740;DHT22;53653;52.188;8.602;2022-08-07T12:47:09;27.17;29.17
66740;DHT22;53653;52.188;8.602;2022-08-07T12:49:56;27.67;29.38
66740;DHT22;53653;52.188;8.602;2022-08-07T12:52:37;27.92;28.72
66740;DHT22;53653;52.188;8.602;2022-08-07T12:55:16;28.05;28.91
66740;DHT22;53653;52.188;8.602;2022-08-07T12:57:42;28.28;28.49
66740;DHT22;53653;52.188;8.602;2022-08-07T13:00:10;28.47;28.87
66740;DHT22;53653;52.188;8.602;2022-08-07T13:13:54;27.50;29.11
66740;DHT22;53653;52.188;8.602;2022-08-07T13:16:57;27.17;29.94
66740;DHT22;53653;52.188;8.602;2022-08-07T13:24:47;27.34;29.44
66740;DHT22;53653;52.188;8.602;2022-08-07T13:27:28;27.71;28.98
66740;DHT22;53653;52.188;8.602;2022-08-07T13:30:05;28.15;28.96
66740;DHT22;53653;52.188;8.602;2022-08-07T13:32:57;28.26;28.85
66740;DHT22;53653;52.188;8.602;2022-08-07T13:43:27;28.04;27.94
66740;DHT22;53653;52.188;8.602;2022-08-07T13:45:59;27.97;28.64
66740;DHT22;53653;52.188;8.602;2022-08-07T13:48:28;27.95;28.66
66740;DHT22;53653;52.188;8.602;2022-08-07T13:50:55;27.91;28.59
66740;DHT22;53653;52.188;8.602;2022-08-07T13:53:28;27.65;29.31
66740;DHT22;53653;52.188;8.602;2022-08-07T13:55:55;27.76;28.52
66740;DHT22;53653;52.188;8.602;2022-08-07T13:58:24;27.64;28.63
66740;DHT22;53653;52.188;8.602;2022-08-07T14:01:12;27.14;29.52
66740;DHT22;53653;52.188;8.602;2022-08-07T14:03:39;27.62;29.71
66740;DHT22;53653;52.188;8.602;2022-08-07T14:06:06;27.13;29.30
66740;DHT22;53653;52.188;8.602;2022-08-07T14:08:35;27.41;29.77
66740;DHT22;53653;52.188;8.602;2022-08-07T14:11:03;27.76;29.46
66740;DHT22;53653;52.188;8.602;2022-08-07T14:13:32;27.62;30.13
66740;DHT22;53653;52.188;8.602;2022-08-07T14:16:04;27.62;29.68
66740;DHT22;53653;52.188;8.602;2022-08-07T14:18:37;27.76;29.80
66740;DHT22;53653;52.188;8.602;2022-08-07T14:21:07;25.87;31.54
66740;DHT22;53653;52.188;8.602;2022-08-07T14:23:35;24.90;33.35
66740;DHT22;53653;52.188;8.602;2022-08-07T14:26:10;24.56;33.98
66740;DHT22;53653;52.188;8.602;2022-08-07T14:28:42;25.35;32.71
66740;DHT22;53653;52.188;8.602;2022-08-07T14:31:10;25.65;32.03
66740;DHT22;53653;52.188;8.602;2022-08-07T14:33:36;25.77;32.25
66740;DHT22;53653;52.188;8.602;2022-08-07T14:36:03;25.79;32.49
66740;DHT22;53653;52.188;8.602;2022-08-07T14:38:29;26.27;31.64
66740;DHT22;53653;52.188;8.602;2022-08-07T14:41:26;26.47;32.11
66740;DHT22;53653;52.188;8.602;2022-08-07T14:43:54;26.38;31.93
66740;DHT22;53653;52.188;8.602;2022-08-07T14:46:21;26.81;31.59
66740;DHT22;53653;52.188;8.602;2022-08-07T14:48:50;26.81;31.12
66740;DHT22;53653;52.188;8.602;2022-08-07T14:51:22;26.45;31.87
66740;DHT22;53653;52.188;8.602;2022-08-07T14:53:52;26.52;32.24
66740;DHT22;53653;52.188;8.602;2022-08-07T14:56:20;25.97;33.10
66740;DHT22;53653;52.188;8.602;2022-08-07T14:58:52;25.69;32.96
66740;DHT22;53653;52.188;8.602;2022-08-07T15:01:22;25.27;33.75
66740;DHT22;53653;52.188;8.602;2022-08-07T15:03:51;25.21;33.73
66740;DHT22;53653;52.188;8.602;2022-08-07T15:06:22;25.07;33.87
66740;DHT22;53653;52.188;8.602;2022-08-07T15:08:48;25.07;33.33
66740;DHT22;53653;52.188;8.602;2022-08-07T15:11:21;25.15;33.50
66740;DHT22;53653;52.188;8.602;2022-08-07T15:13:55;25.48;33.32
66740;DHT22;53653;52.188;8.602;2022-08-07T15:16:34;25.87;32.12
66740;DHT22;53653;52.188;8.602;2022-08-07T15:19:04;25.98;31.97
66740;DHT22;53653;52.188;8.602;2022-08-07T15:21:35;26.30;31.53
66740;DHT22;53653;52.188;8.602;2022-08-07T15:24:05;26.58;31.63
66740;DHT22;53653;52.188;8.602;2022-08-07T15:26:42;26.49;31.16
66740;DHT22;53653;52.188;8.602;2022-08-07T15:29:09;26.23;31.86
66740;DHT22;53653;52.188;8.602;2022-08-07T15:31:39;26.41;31.65
66740;DHT22;53653;52.188;8.602;2022-08-07T15:34:06;26.47;31.57
66740;DHT22;53653;52.188;8.602;2022-08-07T15:36:34;26.24;31.59
66740;DHT22;53653;52.188;8.602;2022-08-07T15:39:05;25.98;31.70
66740;DHT22;53653;52.188;8.602;2022-08-07T15:41:37;26.27;31.65
66740;DHT22;53653;52.188;8.602;2022-08-07T15:44:07;26.43;31.86
66740;DHT22;53653;52.188;8.602;2022-08-07T15:46:34;26.35;31.81
66740;DHT22;53653;52.188;8.602;2022-08-07T15:49:02;26.58;31.66
66740;DHT22;53653;52.188;8.602;2022-08-07T15:51:29;26.69;31.42
66740;DHT22;53653;52.188;8.602;2022-08-07T15:53:59;26.96;30.58
66740;DHT22;53653;52.188;8.602;2022-08-07T15:56:34;27.09;31.09
66740;DHT22;53653;52.188;8.602;2022-08-07T15:59:03;27.06;31.34
66740;DHT22;53653;52.188;8.602;2022-08-07T16:01:35;26.85;30.59
66740;DHT22;53653;52.188;8.602;2022-08-07T16:04:04;26.71;31.65
66740;DHT22;53653;52.188;8.602;2022-08-07T16:06:35;26.91;31.76
66740;DHT22;53653;52.188;8.602;2022-08-07T16:09:07;26.91;30.75
66740;DHT22;53653;52.188;8.602;2022-08-07T16:31:44;26.12;32.00
66740;DHT22;53653;52.188;8.602;2022-08-07T16:45:02;25.34;33.61
66740;DHT22;53653;52.188;8.602;2022-08-07T16:47:45;25.34;33.50
66740;DHT22;53653;52.188;8.602;2022-08-07T16:50:37;25.17;33.87
66740;DHT22;53653;52.188;8.602;2022-08-07T16:53:20;25.45;33.80
66740;DHT22;53653;52.188;8.602;2022-08-07T16:56:19;25.62;34.18
66740;DHT22;53653;52.188;8.602;2022-08-07T16:58:54;25.62;33.92
66740;DHT22;53653;52.188;8.602;2022-08-07T17:04:45;24.73;35.60
66740;DHT22;53653;52.188;8.602;2022-08-07T17:07:21;24.59;35.72
66740;DHT22;53653;52.188;8.602;2022-08-07T17:10:03;24.53;36.26
66740;DHT22;53653;52.188;8.602;2022-08-07T17:17:36;24.55;35.48
66740;DHT22;53653;52.188;8.602;2022-08-07T17:20:11;24.40;35.94
66740;DHT22;53653;52.188;8.602;2022-08-07T17:22:51;24.32;36.12
66740;DHT22;53653;52.188;8.602;2022-08-07T17:25:22;24.22;35.70
66740;DHT22;53653;52.188;8.602;2022-08-07T17:28:08;24.52;35.91
66740;DHT22;53653;52.188;8.602;2022-08-07T17:31:03;24.43;36.23
66740;DHT22;53653;52.188;8.602;2022-08-07T17:33:32;24.36;36.26
66740;DHT22;53653;52.188;8.602;2022-08-07T17:36:12;24.52;35.89
66740;DHT22;53653;52.188;8.602;2022-08-07T17:44:10;24.57;36.42
66740;DHT22;53653;52.188;8.602;2022-08-07T17:46:49;24.48;36.62
66740;DHT22;53653;52.188;8.602;2022-08-07T17:49:25;24.26;37.05
66740;DHT22;53653;52.188;8.602;2022-08-07T17:52:42;24.02;37.73
66740;DHT22;53653;52.188;8.602;2022-08-07T17:55:10;24.01;37.73
66740;DHT22;53653;52.188;8.602;2022-08-07T18:00:11;23.79;37.85
66740;DHT22;53653;52.188;8.602;2022-08-07T18:02:58;23.54;38.12
66740;DHT22;53653;52.188;8.602;2022-08-07T18:05:34;23.64;38.22
66740;DHT22;53653;52.188;8.602;2022-08-07T18:08:14;23.67;38.29
66740;DHT22;53653;52.188;8.602;2022-08-07T18:14:03;23.65;38.14
66740;DHT22;53653;52.188;8.602;2022-08-07T18:16:52;23.49;38.38
66740;DHT22;53653;52.188;8.602;2022-08-07T18:21:57;23.42;38.92
66740;DHT22;53653;52.188;8.602;2022-08-07T18:29:59;23.10;39.83
66740;DHT22;53653;52.188;8.602;2022-08-07T18:35:40;22.94;40.28
66740;DHT22;53653;52.188;8.602;2022-08-07T18:41:02;22.96;40.50
66740;DHT22;53653;52.188;8.602;2022-08-07T18:43:37;23.00;40.45
66740;DHT22;53653;52.188;8.602;2022-08-07T18:49:14;22.65;41.79
66740;DHT22;53653;52.188;8.602;2022-08-07T18:54:50;22.36;42.74
66740;DHT22;53653;52.188;8.602;2022-08-07T19:03:01;22.06;43.62
66740;DHT22;53653;52.188;8.602;2022-08-07T19:05:36;21.97;43.80
66740;DHT22;53653;52.188;8.602;2022-08-07T19:08:18;21.96;44.12
66740;DHT22;53653;52.188;8.602;2022-08-07T19:10:49;21.92;44.16
66740;DHT22;53653;52.188;8.602;2022-08-07T19:16:26;21.89;44.14
66740;DHT22;53653;52.188;8.602;2022-08-07T19:19:11;21.89;44.35
66740;DHT22;53653;52.188;8.602;2022-08-07T19:24:25;21.78;44.67